Time;durP1;ratioP1;P1;durP2;ratioP2;P2;SDS_P1;SDS_P2;PMS_P1;PMS_P2;Temp;Humidity;BMP_temperature;BMP_pressure;BME280_temperature;BME280_humidity;BME280_pressure;Samples;Min_cycle;Max_cycle;Signal;HPM_P1;HPM_P2
2023/04/08 00:01:42;;;;;;;4.27;3.93;;;;;;;5.89;100.00;96859.72;5042318;28;20543;-59
2023/04/08 00:04:08;;;;;;;4.10;3.80;;;;;;;5.89;100.00;96864.97;5041370;28;20653;-58
2023/04/08 00:06:35;;;;;;;4.43;4.13;;;;;;;5.85;100.00;96866.09;5042213;28;20632;-59
2023/04/08 00:09:03;;;;;;;4.60;4.30;;;;;;;5.82;100.00;96863.69;5042335;28;20264;-60
2023/04/08 00:11:30;;;;;;;4.60;4.20;;;;;;;5.79;100.00;96859.50;5042180;28;20227;-60
2023/04/08 00:13:57;;;;;;;4.80;4.40;;;;;;;5.74;100.00;96864.22;5042267;28;20562;-58
2023/04/08 00:16:23;;;;;;;4.90;4.40;;;;;;;5.76;100.00;96859.72;5041961;28;20211;-59
2023/04/08 00:18:49;;;;;;;4.33;4.03;;;;;;;5.73;100.00;96867.81;5041343;28;20196;-61
2023/04/08 00:21:19;;;;;;;4.33;4.03;;;;;;;5.70;100.00;96860.19;5040927;28;20230;-58
2023/04/08 00:23:45;;;;;;;4.43;4.13;;;;;;;5.75;100.00;96859.81;5041929;28;20196;-58
2023/04/08 00:26:13;;;;;;;4.33;3.93;;;;;;;5.71;100.00;96856.59;5041369;28;20203;-59
2023/04/08 00:28:41;;;;;;;4.30;4.00;;;;;;;5.77;100.00;96856.16;5041328;28;20250;-59
2023/04/08 00:31:08;;;;;;;3.73;3.50;;;;;;;5.76;100.00;96859.72;5040799;28;20893;-58
2023/04/08 00:33:35;;;;;;;4.20;3.30;;;;;;;5.71;100.00;96859.19;5041121;28;20219;-59
2023/04/08 00:36:02;;;;;;;3.73;3.53;;;;;;;5.67;100.00;96862.19;5041817;28;20248;-60
2023/04/08 00:38:29;;;;;;;4.10;3.80;;;;;;;5.70;100.00;96856.72;5041284;28;20206;-59
2023/04/08 00:40:57;;;;;;;3.67;3.47;;;;;;;5.67;100.00;96855.13;5041924;28;20207;-58
2023/04/08 00:43:25;;;;;;;3.83;3.47;;;;;;;5.61;100.00;96857.34;5041795;28;20195;-58
2023/04/08 00:45:52;;;;;;;3.50;3.30;;;;;;;5.60;100.00;96853.06;5041422;28;20203;-59
2023/04/08 00:48:19;;;;;;;3.30;3.10;;;;;;;5.61;100.00;96860.81;5044770;28;20199;-58
2023/04/08 00:50:46;;;;;;;3.30;3.10;;;;;;;5.59;100.00;96867.09;5048732;28;20700;-59
2023/04/08 00:53:13;;;;;;;3.27;3.03;;;;;;;5.56;100.00;96862.09;5045313;28;20230;-59
2023/04/08 00:55:39;;;;;;;2.90;2.70;;;;;;;5.54;100.00;96859.56;5043489;28;20214;-59
2023/04/08 00:58:05;;;;;;;3.00;2.80;;;;;;;5.53;100.00;96860.50;5042210;28;20285;-59
2023/04/08 01:00:34;;;;;;;2.73;2.63;;;;;;;5.48;100.00;96857.38;5041270;28;20208;-59
2023/04/08 01:03:05;;;;;;;2.50;2.40;;;;;;;5.44;100.00;96854.13;5041440;28;20204;-60
2023/04/08 01:05:37;;;;;;;2.43;2.33;;;;;;;5.47;100.00;96848.66;5044759;28;20211;-62
2023/04/08 01:08:05;;;;;;;2.20;2.10;;;;;;;5.51;100.00;96851.91;5044885;28;20210;-59
2023/04/08 01:10:34;;;;;;;2.83;2.63;;;;;;;5.49;100.00;96851.19;5045602;28;20225;-58
2023/04/08 01:13:04;;;;;;;2.00;1.90;;;;;;;5.47;100.00;96842.56;5045428;28;20225;-58
2023/04/08 01:15:33;;;;;;;2.30;2.10;;;;;;;5.49;100.00;96846.75;5045179;28;20273;-59
2023/04/08 01:18:00;;;;;;;1.80;1.70;;;;;;;5.55;100.00;96850.75;5044836;28;20200;-58
2023/04/08 01:20:27;;;;;;;1.80;1.70;;;;;;;5.59;100.00;96846.13;5045357;28;20247;-58
2023/04/08 01:23:04;;;;;;;2.23;2.07;;;;;;;5.58;100.00;96845.28;5043642;28;20539;-58
2023/04/08 01:25:31;;;;;;;2.23;2.13;;;;;;;5.64;100.00;96844.00;5044576;28;20207;-59
2023/04/08 01:28:00;;;;;;;1.80;1.70;;;;;;;5.67;100.00;96844.63;5044805;28;20247;-59
2023/04/08 01:30:29;;;;;;;2.00;1.90;;;;;;;5.64;100.00;96842.22;5057921;28;20195;-59
2023/04/08 01:32:56;;;;;;;2.00;1.90;;;;;;;5.69;100.00;96847.16;5071042;28;20219;-59
2023/04/08 01:35:24;;;;;;;1.87;1.77;;;;;;;5.72;100.00;96847.78;5068426;28;20210;-61
2023/04/08 01:37:51;;;;;;;2.00;1.90;;;;;;;5.74;100.00;96851.13;5067224;28;20184;-61
2023/04/08 01:40:19;;;;;;;2.20;2.10;;;;;;;5.77;100.00;96856.16;5052182;28;20208;-59
2023/04/08 01:42:47;;;;;;;1.90;1.80;;;;;;;5.80;100.00;96853.31;5044833;28;20620;-58
2023/04/08 01:45:16;;;;;;;1.83;1.73;;;;;;;5.85;100.00;96856.44;5044815;28;20211;-60
2023/04/08 01:47:43;;;;;;;1.60;1.50;;;;;;;5.89;100.00;96855.31;5044414;28;20236;-59
2023/04/08 01:50:10;;;;;;;1.60;1.50;;;;;;;5.90;100.00;96846.50;5044340;28;20308;-61
2023/04/08 01:52:38;;;;;;;1.60;1.50;;;;;;;5.93;100.00;96855.94;5045131;28;20206;-58
2023/04/08 01:55:06;;;;;;;1.50;1.47;;;;;;;5.98;100.00;96849.44;5044685;28;20239;-59
2023/04/08 01:57:34;;;;;;;1.93;1.83;;;;;;;6.02;100.00;96849.19;5045061;28;20584;-60
2023/04/08 02:00:02;;;;;;;1.80;1.60;;;;;;;6.04;100.00;96849.91;5044368;28;20307;-60
2023/04/08 02:02:31;;;;;;;1.83;1.73;;;;;;;6.07;100.00;96837.41;5044485;28;20258;-58
2023/04/08 02:05:01;;;;;;;1.80;1.70;;;;;;;6.11;100.00;96838.03;5044746;28;20214;-58
2023/04/08 02:07:27;;;;;;;1.77;1.67;;;;;;;6.15;100.00;96836.84;5043988;28;20624;-58
2023/04/08 02:09:54;;;;;;;2.20;2.10;;;;;;;6.13;100.00;96836.16;5044830;28;20211;-58
2023/04/08 02:12:21;;;;;;;2.10;2.00;;;;;;;6.11;100.00;96838.03;5044450;28;20261;-60
2023/04/08 02:14:47;;;;;;;1.90;1.80;;;;;;;6.14;100.00;96843.06;5043799;28;20242;-58
2023/04/08 02:17:20;;;;;;;2.43;2.33;;;;;;;6.17;100.00;96851.53;5043927;28;20199;-60
2023/04/08 02:19:53;;;;;;;2.03;1.93;;;;;;;6.20;100.00;96848.69;5043318;28;20268;-58
2023/04/08 02:22:25;;;;;;;2.00;1.90;;;;;;;6.20;100.00;96847.88;5044089;28;20211;-60
2023/04/08 02:24:52;;;;;;;2.17;2.07;;;;;;;6.21;100.00;96857.41;5044242;28;20192;-58
2023/04/08 02:27:20;;;;;;;1.93;1.83;;;;;;;6.10;100.00;96858.19;5043886;28;20203;-58
2023/04/08 02:29:47;;;;;;;2.13;2.03;;;;;;;6.08;100.00;96859.25;5044295;28;20225;-59
2023/04/08 02:32:14;;;;;;;2.20;2.10;;;;;;;6.12;100.00;96856.31;5043795;28;20203;-58
2023/04/08 02:34:42;;;;;;;2.93;2.23;;;;;;;6.17;100.00;96854.16;5043977;28;20313;-59
2023/04/08 02:37:10;;;;;;;2.43;2.33;;;;;;;6.17;100.00;96858.56;5044188;28;20203;-60
2023/04/08 02:39:36;;;;;;;3.07;2.87;;;;;;;6.15;100.00;96845.56;5044481;28;20199;-58
2023/04/08 02:42:04;;;;;;;2.20;2.10;;;;;;;6.15;100.00;96850.84;5046205;28;20218;-59
2023/04/08 02:44:30;;;;;;;1.90;1.80;;;;;;;6.18;100.00;96852.38;5045436;28;20299;-60
2023/04/08 02:46:57;;;;;;;2.03;1.93;;;;;;;6.23;100.00;96850.28;5043531;28;20199;-59
2023/04/08 02:49:23;;;;;;;2.20;2.10;;;;;;;6.18;100.00;96852.38;5043122;28;20215;-58
2023/04/08 02:51:49;;;;;;;2.03;1.93;;;;;;;6.15;100.00;96852.63;5049983;28;20219;-59
2023/04/08 02:54:17;;;;;;;1.70;1.60;;;;;;;6.14;100.00;96848.31;5052305;28;20219;-59
2023/04/08 02:56:44;;;;;;;1.70;1.60;;;;;;;6.12;100.00;96852.84;5052979;28;20233;-60
2023/04/08 02:59:10;;;;;;;1.90;1.80;;;;;;;6.15;100.00;96850.00;5047127;28;20217;-58
2023/04/08 03:01:38;;;;;;;1.33;1.33;;;;;;;6.17;100.00;96848.06;5044988;28;20214;-57
2023/04/08 03:04:04;;;;;;;1.33;1.20;;;;;;;6.16;100.00;96846.41;5045311;28;20203;-59
2023/04/08 03:06:31;;;;;;;1.30;1.30;;;;;;;6.15;100.00;96852.63;5044841;28;20209;-59
2023/04/08 03:08:58;;;;;;;1.20;1.20;;;;;;;6.19;100.00;96851.44;5043182;28;20199;-58
2023/04/08 03:11:26;;;;;;;1.00;1.00;;;;;;;6.16;100.00;96856.91;5043394;28;20771;-59
2023/04/08 03:13:52;;;;;;;1.13;1.13;;;;;;;6.19;100.00;96862.78;5043138;28;20622;-59
2023/04/08 03:16:18;;;;;;;0.97;0.97;;;;;;;6.25;100.00;96856.25;5043077;28;20640;-58
2023/04/08 03:18:45;;;;;;;1.97;1.20;;;;;;;6.25;100.00;96861.50;5051431;28;20199;-58
2023/04/08 03:21:11;;;;;;;1.20;1.10;;;;;;;6.25;100.00;96864.13;5047914;28;20239;-58
2023/04/08 03:23:38;;;;;;;1.20;1.20;;;;;;;6.24;100.00;96858.03;5046739;28;20202;-57
2023/04/08 03:26:04;;;;;;;1.00;1.00;;;;;;;6.24;100.00;96865.06;5042028;28;20200;-60
2023/04/08 03:28:34;;;;;;;1.07;1.00;;;;;;;6.19;100.00;96862.78;5042850;28;20273;-60
2023/04/08 03:31:01;;;;;;;1.10;1.10;;;;;;;6.21;100.00;96865.28;5043595;28;20638;-61
2023/04/08 03:33:27;;;;;;;0.90;0.90;;;;;;;6.21;100.00;96860.03;5042179;28;20301;-61
2023/04/08 03:35:54;;;;;;;1.23;1.00;;;;;;;6.20;100.00;96861.00;5043738;28;20222;-60
2023/04/08 03:38:20;;;;;;;1.10;1.10;;;;;;;6.19;100.00;96873.28;5042651;28;20214;-59
2023/04/08 03:40:47;;;;;;;1.00;1.00;;;;;;;6.13;100.00;96871.09;5043280;28;20529;-58
2023/04/08 03:43:14;;;;;;;1.03;1.03;;;;;;;6.23;100.00;96874.75;5042639;28;20253;-58
2023/04/08 03:45:42;;;;;;;1.40;1.40;;;;;;;6.28;100.00;96872.63;5043442;28;20203;-60
2023/04/08 03:48:08;;;;;;;1.30;1.20;;;;;;;6.24;100.00;96870.31;5042833;28;20319;-58
2023/04/08 03:50:34;;;;;;;1.50;1.40;;;;;;;6.24;100.00;96870.31;5042818;28;20286;-58
2023/04/08 03:53:01;;;;;;;1.03;1.03;;;;;;;6.27;100.00;96870.13;5042074;28;21418;-60
2023/04/08 03:55:27;;;;;;;1.50;1.40;;;;;;;6.31;100.00;96866.28;5041705;28;20278;-58
2023/04/08 03:57:54;;;;;;;1.50;1.40;;;;;;;6.30;100.00;96857.59;5042119;28;20284;-58
2023/04/08 04:00:20;;;;;;;1.40;1.30;;;;;;;6.32;100.00;96852.22;5042339;28;20199;-59
2023/04/08 04:02:48;;;;;;;1.23;1.23;;;;;;;6.32;100.00;96860.94;5041566;28;20208;-59
2023/04/08 04:05:15;;;;;;;2.27;1.57;;;;;;;6.30;100.00;96864.63;5041812;28;20200;-59
2023/04/08 04:07:41;;;;;;;1.73;1.30;;;;;;;6.24;100.00;96858.03;5042348;28;20218;-59
2023/04/08 04:10:09;;;;;;;1.47;1.40;;;;;;;6.23;100.00;96859.00;5042207;28;20214;-58
2023/04/08 04:12:36;;;;;;;1.40;1.40;;;;;;;6.25;100.00;96857.09;5042526;28;20212;-58
2023/04/08 04:15:04;;;;;;;1.17;1.17;;;;;;;6.25;100.00;96861.50;5041737;28;20223;-60
2023/04/08 04:17:30;;;;;;;1.70;1.60;;;;;;;6.26;100.00;96865.81;5041894;28;20258;-58
2023/04/08 04:19:58;;;;;;;2.03;1.93;;;;;;;6.29;100.00;96863.78;5040867;28;20246;-58
2023/04/08 04:22:25;;;;;;;2.40;2.20;;;;;;;6.30;100.00;96864.63;5042011;28;20214;-59
2023/04/08 04:24:51;;;;;;;2.30;2.10;;;;;;;6.30;100.00;96869.91;5041369;28;20195;-60
2023/04/08 04:27:18;;;;;;;3.00;2.27;;;;;;;6.31;100.00;96861.03;5041675;28;20208;-62
2023/04/08 04:29:44;;;;;;;2.33;2.20;;;;;;;6.27;100.00;96860.44;5041901;28;20218;-58
2023/04/08 04:32:11;;;;;;;2.10;2.00;;;;;;;6.29;100.00;96869.06;5041614;28;20223;-60
2023/04/08 04:34:37;;;;;;;2.30;2.20;;;;;;;6.29;100.00;96873.47;5041285;28;20231;-58
2023/04/08 04:37:05;;;;;;;2.03;1.93;;;;;;;6.28;100.00;96877.03;5041796;28;20220;-60
2023/04/08 04:39:31;;;;;;;2.67;2.47;;;;;;;6.32;100.00;96878.47;5041205;28;20219;-59
2023/04/08 04:41:58;;;;;;;2.57;2.37;;;;;;;6.33;100.00;96878.38;5042177;28;20199;-59
2023/04/08 04:44:26;;;;;;;2.57;2.47;;;;;;;6.38;100.00;96878.03;5041203;28;20956;-58
2023/04/08 04:46:52;;;;;;;2.80;2.60;;;;;;;6.34;100.00;96876.59;5041255;28;20225;-58
2023/04/08 04:49:18;;;;;;;2.60;2.40;;;;;;;6.37;100.00;96881.63;5041053;28;20265;-60
2023/04/08 04:51:45;;;;;;;2.60;2.40;;;;;;;6.38;100.00;96884.13;5041437;28;20210;-61
2023/04/08 04:54:13;;;;;;;2.40;2.30;;;;;;;6.34;100.00;96884.47;5041194;28;20236;-60
2023/04/08 04:56:39;;;;;;;3.33;3.13;;;;;;;6.34;100.00;96889.72;5041973;28;20218;-58
2023/04/08 04:59:06;;;;;;;3.67;3.47;;;;;;;6.36;100.00;96885.19;5041495;28;20203;-59
2023/04/08 05:01:32;;;;;;;3.77;3.50;;;;;;;6.43;100.00;96891.69;5041552;28;20203;-60
2023/04/08 05:03:58;;;;;;;3.70;3.47;;;;;;;6.42;100.00;96895.25;5040595;28;20196;-59
2023/04/08 05:06:25;;;;;;;3.43;3.23;;;;;;;6.42;100.00;96890.00;5041901;28;20217;-58
2023/04/08 05:08:52;;;;;;;3.50;3.30;;;;;;;6.50;100.00;96903.41;5041660;28;20719;-59
2023/04/08 05:11:20;;;;;;;3.80;3.50;;;;;;;6.50;100.00;96898.16;5042120;28;20206;-59
2023/04/08 05:13:47;;;;;;;3.70;3.40;;;;;;;6.52;100.00;96896.25;5040959;28;20598;-59
2023/04/08 05:16:14;;;;;;;3.53;3.33;;;;;;;6.51;100.00;96899.84;5041273;28;20643;-60
2023/04/08 05:18:40;;;;;;;4.47;3.67;;;;;;;6.48;100.00;96908.78;5041266;28;20225;-61
2023/04/08 05:21:07;;;;;;;4.00;3.70;;;;;;;6.47;100.00;96914.16;5040838;28;20247;-59
2023/04/08 05:23:34;;;;;;;3.87;3.57;;;;;;;6.46;100.00;96921.19;5041388;28;20241;-60
2023/04/08 05:26:01;;;;;;;3.90;3.60;;;;;;;6.47;100.00;96922.03;5041118;28;20192;-59
2023/04/08 05:28:29;;;;;;;4.00;3.70;;;;;;;6.50;100.00;96925.28;5041212;28;20655;-59
2023/04/08 05:30:55;;;;;;;3.60;3.40;;;;;;;6.56;100.00;96929.25;5041408;28;20264;-59
2023/04/08 05:33:22;;;;;;;4.30;4.00;;;;;;;6.59;100.00;96925.56;5041223;28;20207;-60
2023/04/08 05:35:48;;;;;;;4.27;3.93;;;;;;;6.62;100.00;96920.94;5039726;28;20239;-58
2023/04/08 05:38:15;;;;;;;4.20;3.90;;;;;;;6.67;100.00;96926.66;5041137;28;20196;-58
2023/04/08 05:40:41;;;;;;;4.13;3.83;;;;;;;6.64;100.00;96929.53;5042160;28;20199;-59
2023/04/08 05:43:08;;;;;;;4.03;3.73;;;;;;;6.68;100.00;96925.72;5039899;28;20214;-59
2023/04/08 05:45:35;;;;;;;4.00;3.70;;;;;;;6.70;100.00;96933.47;5040661;28;20216;-59
2023/04/08 05:48:02;;;;;;;3.80;3.50;;;;;;;6.71;100.00;96928.13;5041050;28;20214;-60
2023/04/08 05:50:29;;;;;;;3.87;3.67;;;;;;;6.74;100.00;96933.16;5043063;28;20219;-59
2023/04/08 05:52:55;;;;;;;4.10;3.80;;;;;;;6.76;100.00;96933.06;5044979;28;20214;-58
2023/04/08 05:55:22;;;;;;;4.53;4.23;;;;;;;6.84;100.00;96933.31;5044560;28;20555;-59
2023/04/08 05:57:48;;;;;;;3.83;3.63;;;;;;;6.83;100.00;96935.13;5044386;28;20195;-60
2023/04/08 06:00:15;;;;;;;4.10;3.80;;;;;;;6.92;100.00;96937.06;5044037;28;20229;-59
2023/04/08 06:02:44;;;;;;;4.20;3.90;;;;;;;6.94;100.00;96942.22;5045091;28;20207;-61
2023/04/08 06:05:11;;;;;;;4.00;3.70;;;;;;;6.95;100.00;96946.50;5043572;28;21448;-60
2023/04/08 06:07:37;;;;;;;4.17;3.87;;;;;;;7.04;100.00;96945.84;5044325;28;20199;-59
2023/04/08 06:10:06;;;;;;;4.47;4.17;;;;;;;7.01;100.00;96951.34;5044852;28;20290;-60
2023/04/08 06:12:35;;;;;;;4.43;4.13;;;;;;;7.06;100.00;96953.59;5043789;28;20660;-61
2023/04/08 06:15:03;;;;;;;4.43;4.03;;;;;;;7.04;100.00;96950.25;5044307;28;20316;-60
2023/04/08 06:17:29;;;;;;;5.10;4.70;;;;;;;7.05;100.00;96952.75;5044200;28;20218;-60
2023/04/08 06:19:57;;;;;;;4.63;4.23;;;;;;;7.13;100.00;96950.41;5042801;28;20211;-60
2023/04/08 06:22:24;;;;;;;4.90;4.50;;;;;;;7.10;100.00;96955.03;5043906;28;20589;-59
2023/04/08 06:24:51;;;;;;;4.67;4.33;;;;;;;7.17;100.00;96956.28;5043009;28;20207;-60
2023/04/08 06:27:18;;;;;;;5.00;4.60;;;;;;;7.18;100.00;96952.69;5043920;28;20204;-58
2023/04/08 06:29:44;;;;;;;5.80;5.20;;;;;;;7.17;100.00;96948.38;5044125;28;20206;-58
2023/04/08 06:32:11;;;;;;;5.63;5.13;;;;;;;7.29;100.00;96955.38;5043831;28;20207;-60
2023/04/08 06:34:37;;;;;;;5.20;4.80;;;;;;;7.41;100.00;96947.38;5043069;28;20322;-59
2023/04/08 06:37:06;;;;;;;4.80;4.50;;;;;;;7.53;100.00;96947.41;5043846;28;20307;-58
2023/04/08 06:39:32;;;;;;;5.20;4.80;;;;;;;7.64;100.00;96950.06;5044023;28;20207;-59
2023/04/08 06:42:00;;;;;;;5.50;5.10;;;;;;;7.67;100.00;96952.44;5044094;28;20203;-60
2023/04/08 06:44:26;;;;;;;4.67;4.33;;;;;;;7.71;100.00;96949.47;5044218;28;20208;-59
2023/04/08 06:46:53;;;;;;;4.70;4.40;;;;;;;7.80;100.00;96955.81;5044120;28;20208;-60
2023/04/08 06:49:19;;;;;;;5.07;4.57;;;;;;;7.89;100.00;96953.31;5044159;28;20211;-60
2023/04/08 06:51:46;;;;;;;5.13;4.73;;;;;;;7.88;100.00;96951.63;5045984;28;20254;-60
2023/04/08 06:54:16;;;;;;;4.83;4.50;;;;;;;7.91;100.00;96958.44;5048696;28;20222;-59
2023/04/08 06:56:43;;;;;;;5.37;4.90;;;;;;;7.88;100.00;96948.16;5048569;28;20196;-60
2023/04/08 06:59:12;;;;;;;4.77;4.47;;;;;;;7.89;100.00;96958.59;5050065;28;20604;-59
2023/04/08 07:01:38;;;;;;;4.67;4.37;;;;;;;8.04;100.00;96953.91;5049794;28;20238;-60
2023/04/08 07:04:05;;;;;;;4.57;4.27;;;;;;;8.13;100.00;96952.34;5048938;28;20300;-59
2023/04/08 07:06:31;;;;;;;4.83;4.53;;;;;;;8.19;100.00;96951.84;5051212;28;20203;-62
2023/04/08 07:08:58;;;;;;;5.10;4.70;;;;;;;8.20;100.00;96958.81;5053335;28;20199;-60
2023/04/08 07:11:26;;;;;;;6.00;5.50;;;;;;;8.19;100.00;96959.75;5051464;28;20203;-59
2023/04/08 07:13:53;;;;;;;5.67;5.27;;;;;;;8.19;100.00;96957.13;5047368;28;20207;-59
2023/04/08 07:16:20;;;;;;;5.90;5.40;;;;;;;8.23;100.00;96963.84;5049546;28;20214;-59
2023/04/08 07:18:46;;;;;;;5.40;5.00;;;;;;;8.16;100.00;96960.84;5043560;28;20211;-58
2023/04/08 07:21:13;;;;;;;6.80;6.20;;;;;;;8.09;100.00;96962.28;5042848;28;20579;-59
2023/04/08 07:23:39;;;;;;;6.90;6.30;;;;;;;8.07;100.00;96958.09;5044297;28;20230;-57
2023/04/08 07:26:06;;;;;;;6.50;6.00;;;;;;;8.12;100.00;96961.19;5044029;28;20199;-58
2023/04/08 07:28:34;;;;;;;6.60;6.00;;;;;;;8.22;100.00;96967.44;5044023;28;20195;-59
2023/04/08 07:31:10;;;;;;;6.60;6.10;;;;;;;8.42;100.00;96969.38;5043158;28;20212;-59
2023/04/08 07:33:36;;;;;;;7.03;6.53;;;;;;;8.40;100.00;96971.28;5042478;28;20198;-58
2023/04/08 07:36:03;;;;;;;6.90;6.30;;;;;;;8.46;100.00;96970.81;5043767;28;20230;-58
2023/04/08 07:38:29;;;;;;;7.60;7.00;;;;;;;8.69;98.51;96964.50;5042943;28;20211;-59
2023/04/08 07:40:55;;;;;;;8.23;7.53;;;;;;;8.86;99.05;96973.69;5043341;28;20532;-59
2023/04/08 07:43:22;;;;;;;7.93;7.23;;;;;;;8.72;99.08;96968.69;5042693;28;20200;-59
2023/04/08 07:45:50;;;;;;;8.77;8.07;;;;;;;8.87;96.42;96976.22;5042924;28;20203;-59
2023/04/08 07:48:16;;;;;;;8.30;7.50;;;;;;;8.89;98.25;96974.28;5042727;28;20207;-58
2023/04/08 07:50:44;;;;;;;8.37;7.67;;;;;;;9.10;96.12;96974.34;5042640;28;20265;-60
2023/04/08 07:53:11;;;;;;;8.13;7.43;;;;;;;9.05;95.14;96983.59;5043221;28;20261;-59
2023/04/08 07:55:38;;;;;;;7.87;7.17;;;;;;;8.96;96.43;96980.72;5042972;28;20231;-58
2023/04/08 07:58:04;;;;;;;7.20;6.70;;;;;;;8.95;95.83;96979.06;5042324;28;20238;-58
2023/04/08 08:00:32;;;;;;;7.13;6.53;;;;;;;8.97;95.87;96986.84;5042216;28;20211;-60
2023/04/08 08:02:59;;;;;;;6.97;6.37;;;;;;;8.89;96.82;96984.81;5042014;28;20231;-58
2023/04/08 08:05:26;;;;;;;6.83;6.33;;;;;;;8.86;95.18;96984.25;5042191;28;20557;-58
2023/04/08 08:07:53;;;;;;;6.50;6.00;;;;;;;8.88;95.44;96987.59;5042053;28;20203;-59
2023/04/08 08:10:19;;;;;;;6.40;5.90;;;;;;;9.03;96.93;96991.66;5042723;28;20207;-59
2023/04/08 08:12:46;;;;;;;6.60;6.10;;;;;;;9.28;94.43;96996.56;5041479;28;20212;-59
2023/04/08 08:15:13;;;;;;;6.57;6.03;;;;;;;9.27;95.77;96996.72;5041788;28;21548;-59
2023/04/08 08:17:40;;;;;;;6.27;5.83;;;;;;;9.25;94.17;96999.47;5045273;28;20204;-60
2023/04/08 08:20:09;;;;;;;5.87;5.47;;;;;;;9.40;94.13;97005.28;5047889;28;20254;-59
2023/04/08 08:22:37;;;;;;;6.20;5.70;;;;;;;9.27;93.42;97002.81;5057196;28;20195;-61
2023/04/08 08:25:05;;;;;;;6.07;5.60;;;;;;;9.35;93.18;97005.66;5045962;28;20230;-59
2023/04/08 08:27:33;;;;;;;6.00;5.50;;;;;;;9.45;92.94;97003.94;5045121;28;20210;-60
2023/04/08 08:29:59;;;;;;;6.20;5.70;;;;;;;9.71;92.20;97001.75;5043652;28;20203;-60
2023/04/08 08:32:26;;;;;;;5.93;5.47;;;;;;;10.02;92.33;97010.59;5045071;28;20545;-60
2023/04/08 08:34:52;;;;;;;5.90;5.40;;;;;;;10.36;89.89;97004.09;5040953;28;20522;-61
2023/04/08 08:37:20;;;;;;;6.27;5.77;;;;;;;10.70;88.12;97009.09;5042007;28;20226;-61
2023/04/08 08:39:46;;;;;;;6.47;5.57;;;;;;;11.28;86.30;96999.44;5041478;28;20203;-60
2023/04/08 08:42:21;;;;;;;6.60;6.10;;;;;;;11.64;86.27;97009.34;5042376;28;20199;-60
2023/04/08 08:44:47;;;;;;;6.60;6.10;;;;;;;11.55;81.05;97010.16;5040725;28;20238;-59
2023/04/08 08:47:14;;;;;;;6.30;5.80;;;;;;;11.48;79.99;97012.53;5042205;28;20285;-60
2023/04/08 08:49:40;;;;;;;7.00;6.43;;;;;;;11.62;79.35;97007.81;5041418;28;20203;-59
2023/04/08 08:52:07;;;;;;;7.13;6.53;;;;;;;11.98;79.98;97005.25;5042133;28;20210;-59
2023/04/08 08:54:35;;;;;;;6.63;6.03;;;;;;;12.06;78.10;97011.66;5041092;28;20203;-60
2023/04/08 08:57:01;;;;;;;6.20;5.70;;;;;;;11.96;78.89;97007.22;5046752;28;20228;-60
2023/04/08 08:59:28;;;;;;;6.47;6.07;;;;;;;11.76;80.34;97007.41;5052425;28;20210;-60
2023/04/08 09:01:55;;;;;;;7.10;6.40;;;;;;;11.57;80.87;97008.22;5053332;28;20603;-61
2023/04/08 09:04:21;;;;;;;6.70;6.20;;;;;;;11.60;80.09;97010.59;5047930;28;20211;-61
2023/04/08 09:06:49;;;;;;;7.43;6.83;;;;;;;11.67;80.87;97010.84;5041359;28;20353;-59
2023/04/08 09:09:16;;;;;;;7.17;6.57;;;;;;;11.61;80.24;97012.28;5041525;28;20268;-58
2023/04/08 09:11:45;;;;;;;6.87;6.27;;;;;;;12.06;77.80;97017.81;5041694;28;20208;-61
2023/04/08 09:14:22;;;;;;;6.20;5.73;;;;;;;12.55;76.30;97013.19;5041202;28;20204;-59
2023/04/08 09:16:52;;;;;;;6.30;5.80;;;;;;;13.33;74.72;97004.66;5041899;28;20238;-59
2023/04/08 09:19:18;;;;;;;6.07;5.67;;;;;;;13.50;71.26;97006.47;5041402;28;20636;-59
2023/04/08 09:21:46;;;;;;;6.50;6.00;;;;;;;14.38;71.65;97013.50;5041564;28;20545;-58
2023/04/08 09:24:30;;;;;;;5.90;5.40;;;;;;;14.70;66.26;97005.66;5043262;28;20238;-60
2023/04/08 09:26:58;;;;;;;6.03;5.63;;;;;;;14.50;64.85;97006.91;5045804;28;20265;-59
2023/04/08 09:29:27;;;;;;;6.03;5.43;;;;;;;14.76;64.46;97007.72;5046058;28;20203;-59
2023/04/08 09:31:55;;;;;;;6.33;5.90;;;;;;;14.02;64.99;97002.09;5045544;28;20294;-59
2023/04/08 09:34:22;;;;;;;5.72;5.32;;;;;;;13.30;65.55;97005.78;5045691;28;20291;-61
2023/04/08 09:36:48;;;;;;;5.63;5.23;;;;;;;13.42;68.34;97003.75;5044972;28;20235;-58
2023/04/08 09:39:15;;;;;;;5.73;5.23;;;;;;;13.51;70.07;97000.19;5044945;28;20698;-59
2023/04/08 09:41:42;;;;;;;5.80;5.30;;;;;;;13.20;69.37;97007.69;5045651;28;20208;-59
2023/04/08 09:44:12;;;;;;;5.77;5.37;;;;;;;12.77;68.89;97008.34;5045443;28;20211;-59
2023/04/08 09:46:52;;;;;;;5.70;5.30;;;;;;;13.03;68.67;96997.00;5045312;28;20211;-58
2023/04/08 09:49:25;;;;;;;5.87;5.47;;;;;;;13.00;68.30;97005.28;5044619;28;20608;-58
2023/04/08 09:51:56;;;;;;;5.60;5.20;;;;;;;12.55;70.87;97014.00;5044848;28;20588;-59
2023/04/08 09:54:32;;;;;;;5.87;5.37;;;;;;;12.46;70.25;97010.44;5044617;28;20216;-61
2023/04/08 09:57:03;;;;;;;5.63;5.23;;;;;;;12.26;72.58;97010.63;5044314;28;20306;-59
2023/04/08 09:59:35;;;;;;;5.83;5.43;;;;;;;12.25;73.41;97007.16;5044451;28;20625;-59
2023/04/08 10:02:05;;;;;;;6.50;5.90;;;;;;;12.46;71.04;97005.13;5043732;28;20206;-59
2023/04/08 10:04:32;;;;;;;5.60;5.20;;;;;;;12.50;71.21;97005.69;5043728;28;20447;-60
2023/04/08 10:07:04;;;;;;;5.93;5.50;;;;;;;12.68;70.08;97003.88;5044109;28;20514;-60
2023/04/08 10:09:31;;;;;;;5.43;5.10;;;;;;;13.08;69.30;97010.66;5044530;28;20213;-61
2023/04/08 10:11:58;;;;;;;6.07;5.57;;;;;;;13.33;68.41;97010.81;5044593;28;20234;-59
2023/04/08 10:14:27;;;;;;;5.80;5.40;;;;;;;13.92;68.50;97007.50;5045109;28;20211;-60
2023/04/08 10:17:25;;;;;;;5.77;5.37;;;;;;;14.03;65.53;97010.91;5045598;28;20227;-59
2023/04/08 10:19:51;;;;;;;5.43;5.03;;;;;;;13.61;65.52;97002.75;5044890;28;20609;-60
2023/04/08 10:22:48;;;;;;;5.63;5.23;;;;;;;13.56;65.59;96994.41;5044162;28;20234;-60
2023/04/08 10:25:28;;;;;;;5.93;5.43;;;;;;;13.37;67.39;97001.56;5044165;28;20208;-59
2023/04/08 10:27:55;;;;;;;6.17;5.77;;;;;;;13.33;66.66;96997.53;5044706;28;20199;-59
2023/04/08 10:30:40;;;;;;;5.87;5.47;;;;;;;13.13;68.04;96992.50;5042994;28;20211;-59
2023/04/08 10:33:12;;;;;;;6.30;5.83;;;;;;;13.37;67.38;96996.25;5043004;28;20214;-60
2023/04/08 10:35:41;;;;;;;6.33;5.83;;;;;;;13.80;66.95;96991.94;5043833;28;20212;-59
2023/04/08 10:38:08;;;;;;;5.93;5.53;;;;;;;14.47;67.70;96993.91;5043624;28;20269;-59
2023/04/08 10:40:37;;;;;;;6.10;5.70;;;;;;;13.81;62.70;96993.63;5044522;28;20210;-60
2023/04/08 10:43:04;;;;;;;5.70;5.30;;;;;;;13.82;63.99;96985.47;5042419;28;20226;-59
2023/04/08 10:45:31;;;;;;;5.67;5.27;;;;;;;14.01;63.59;96989.78;5047226;28;20490;-60
2023/04/08 10:47:57;;;;;;;5.47;5.07;;;;;;;14.62;62.90;96989.69;5058810;28;20183;-59
2023/04/08 10:50:25;;;;;;;5.40;5.00;;;;;;;15.53;61.08;96981.78;5059356;28;20203;-63
2023/04/08 10:52:53;;;;;;;5.55;5.15;;;;;;;15.90;56.46;96985.63;5056442;28;20298;-60
2023/04/08 10:55:22;;;;;;;4.80;4.40;;;;;;;16.29;57.82;96985.75;5044129;28;20214;-59
2023/04/08 10:57:50;;;;;;;4.90;4.60;;;;;;;16.08;57.69;96979.28;5044346;28;20258;-60
2023/04/08 11:00:18;;;;;;;4.57;4.28;;;;;;;15.66;57.05;96980.28;5043220;28;20210;-59
2023/04/08 11:02:45;;;;;;;4.55;4.25;;;;;;;15.50;55.62;96974.97;5043663;28;20249;-59
2023/04/08 11:05:11;;;;;;;3.67;3.47;;;;;;;15.35;55.66;96973.91;5043564;28;20199;-59
2023/04/08 11:07:41;;;;;;;4.45;4.15;;;;;;;15.20;54.94;96973.69;5044036;28;20199;-58
2023/04/08 11:10:08;;;;;;;4.25;3.95;;;;;;;14.95;56.65;96972.81;5043828;28;20245;-58
2023/04/08 11:12:36;;;;;;;4.03;3.80;;;;;;;14.69;57.17;96969.41;5044087;28;20245;-59
2023/04/08 11:15:03;;;;;;;4.10;3.80;;;;;;;14.47;56.34;96972.63;5043275;28;20653;-59
2023/04/08 11:17:30;;;;;;;4.30;4.00;;;;;;;14.56;59.21;96968.19;5044143;28;20254;-60
2023/04/08 11:20:01;;;;;;;4.10;3.80;;;;;;;14.55;56.60;96962.03;5043008;28;20644;-59
2023/04/08 11:22:29;;;;;;;4.00;3.70;;;;;;;15.12;57.30;96970.22;5043606;28;20203;-60
2023/04/08 11:24:57;;;;;;;4.20;3.90;;;;;;;15.43;56.43;96963.25;5044128;28;20338;-59
2023/04/08 11:27:24;;;;;;;4.20;4.00;;;;;;;15.20;56.93;96960.38;5044018;28;20200;-59
2023/04/08 11:29:51;;;;;;;4.28;4.07;;;;;;;15.54;54.27;96959.47;5043142;28;20656;-60
2023/04/08 11:32:17;;;;;;;4.00;3.70;;;;;;;15.36;55.56;96962.25;5042592;28;20215;-58
2023/04/08 11:34:45;;;;;;;3.97;3.78;;;;;;;15.02;55.11;96959.66;5043960;28;20211;-59
2023/04/08 11:37:12;;;;;;;4.20;3.92;;;;;;;14.85;57.94;96958.81;5054386;28;20881;-60